sensor_id;sensor_type;location;lat;lon;timestamp;temperature;humidity
7998;DHT22;4044;49.814;7.828;2024-01-30T00:01:19;1.70;97.40
7998;DHT22;4044;49.814;7.828;2024-01-30T00:03:45;1.70;97.40
7998;DHT22;4044;49.814;7.828;2024-01-30T00:06:11;1.70;97.40
7998;DHT22;4044;49.814;7.828;2024-01-30T00:08:37;1.70;97.50
7998;DHT22;4044;49.814;7.828;2024-01-30T00:11:02;1.70;97.40
7998;DHT22;4044;49.814;7.828;2024-01-30T00:13:28;1.60;97.30
7998;DHT22;4044;49.814;7.828;2024-01-30T00:15:53;1.60;97.40
7998;DHT22;4044;49.814;7.828;2024-01-30T00:18:19;1.60;97.80
7998;DHT22;4044;49.814;7.828;2024-01-30T00:20:45;1.60;97.20
7998;DHT22;4044;49.814;7.828;2024-01-30T00:23:10;1.50;97.30
7998;DHT22;4044;49.814;7.828;2024-01-30T00:25:36;1.50;97.50
7998;DHT22;4044;49.814;7.828;2024-01-30T00:28:01;1.50;97.30
7998;DHT22;4044;49.814;7.828;2024-01-30T00:30:27;1.50;97.30
7998;DHT22;4044;49.814;7.828;2024-01-30T00:32:53;1.50;97.20
7998;DHT22;4044;49.814;7.828;2024-01-30T00:35:19;1.40;97.30
7998;DHT22;4044;49.814;7.828;2024-01-30T00:37:47;1.40;97.90
7998;DHT22;4044;49.814;7.828;2024-01-30T00:40:13;1.40;97.60
7998;DHT22;4044;49.814;7.828;2024-01-30T00:42:42;1.40;97.50
7998;DHT22;4044;49.814;7.828;2024-01-30T00:45:15;1.30;97.90
7998;DHT22;4044;49.814;7.828;2024-01-30T00:47:41;1.30;97.60
7998;DHT22;4044;49.814;7.828;2024-01-30T00:50:07;1.30;97.70
7998;DHT22;4044;49.814;7.828;2024-01-30T00:52:32;1.10;98.20
7998;DHT22;4044;49.814;7.828;2024-01-30T00:55:01;1.00;98.40
7998;DHT22;4044;49.814;7.828;2024-01-30T00:57:28;0.90;98.90
7998;DHT22;4044;49.814;7.828;2024-01-30T00:59:53;0.80;99.50
7998;DHT22;4044;49.814;7.828;2024-01-30T01:02:19;0.80;99.00
7998;DHT22;4044;49.814;7.828;2024-01-30T01:04:45;0.90;98.80
7998;DHT22;4044;49.814;7.828;2024-01-30T01:07:11;0.90;99.00
7998;DHT22;4044;49.814;7.828;2024-01-30T01:09:36;1.00;99.00
7998;DHT22;4044;49.814;7.828;2024-01-30T01:12:03;1.00;98.70
7998;DHT22;4044;49.814;7.828;2024-01-30T01:14:28;0.90;99.00
7998;DHT22;4044;49.814;7.828;2024-01-30T01:16:54;0.90;98.70
7998;DHT22;4044;49.814;7.828;2024-01-30T01:19:19;0.90;98.60
7998;DHT22;4044;49.814;7.828;2024-01-30T01:21:45;1.00;98.10
7998;DHT22;4044;49.814;7.828;2024-01-30T01:24:11;1.00;98.20
7998;DHT22;4044;49.814;7.828;2024-01-30T01:26:36;1.00;98.00
7998;DHT22;4044;49.814;7.828;2024-01-30T01:29:02;1.00;98.10
7998;DHT22;4044;49.814;7.828;2024-01-30T01:31:37;0.90;98.40
7998;DHT22;4044;49.814;7.828;2024-01-30T01:34:12;0.90;98.30
7998;DHT22;4044;49.814;7.828;2024-01-30T01:36:38;1.00;98.00
7998;DHT22;4044;49.814;7.828;2024-01-30T01:39:04;0.90;98.20
7998;DHT22;4044;49.814;7.828;2024-01-30T01:41:30;1.00;97.90
7998;DHT22;4044;49.814;7.828;2024-01-30T01:43:57;0.90;98.20
7998;DHT22;4044;49.814;7.828;2024-01-30T01:46:23;0.90;98.20
7998;DHT22;4044;49.814;7.828;2024-01-30T01:48:49;1.00;97.90
7998;DHT22;4044;49.814;7.828;2024-01-30T01:51:15;1.00;97.70
7998;DHT22;4044;49.814;7.828;2024-01-30T01:53:41;0.90;97.90
7998;DHT22;4044;49.814;7.828;2024-01-30T01:56:07;1.00;97.80
7998;DHT22;4044;49.814;7.828;2024-01-30T01:58:32;0.90;97.50
7998;DHT22;4044;49.814;7.828;2024-01-30T02:00:59;0.90;97.40
7998;DHT22;4044;49.814;7.828;2024-01-30T02:03:24;0.90;97.50
7998;DHT22;4044;49.814;7.828;2024-01-30T02:05:53;0.90;97.70
7998;DHT22;4044;49.814;7.828;2024-01-30T02:08:19;0.90;97.50
7998;DHT22;4044;49.814;7.828;2024-01-30T02:10:45;0.90;97.40
7998;DHT22;4044;49.814;7.828;2024-01-30T02:13:11;0.90;97.60
7998;DHT22;4044;49.814;7.828;2024-01-30T02:15:36;0.80;98.00
7998;DHT22;4044;49.814;7.828;2024-01-30T02:18:02;0.80;98.00
7998;DHT22;4044;49.814;7.828;2024-01-30T02:20:30;0.80;97.70
7998;DHT22;4044;49.814;7.828;2024-01-30T02:22:58;0.80;97.70
7998;DHT22;4044;49.814;7.828;2024-01-30T02:25:42;0.80;97.90
7998;DHT22;4044;49.814;7.828;2024-01-30T02:28:11;0.90;97.60
7998;DHT22;4044;49.814;7.828;2024-01-30T02:30:42;0.80;97.70
7998;DHT22;4044;49.814;7.828;2024-01-30T02:33:08;0.80;97.50
7998;DHT22;4044;49.814;7.828;2024-01-30T02:35:33;0.80;97.80
7998;DHT22;4044;49.814;7.828;2024-01-30T02:37:59;0.80;98.20
7998;DHT22;4044;49.814;7.828;2024-01-30T02:40:25;0.80;97.70
7998;DHT22;4044;49.814;7.828;2024-01-30T02:42:50;0.80;97.60
7998;DHT22;4044;49.814;7.828;2024-01-30T02:45:16;0.80;97.60
7998;DHT22;4044;49.814;7.828;2024-01-30T02:47:42;0.80;97.90
7998;DHT22;4044;49.814;7.828;2024-01-30T02:50:08;0.80;97.90
7998;DHT22;4044;49.814;7.828;2024-01-30T02:52:34;0.80;97.70
7998;DHT22;4044;49.814;7.828;2024-01-30T02:54:59;0.70;97.50
7998;DHT22;4044;49.814;7.828;2024-01-30T02:57:25;0.80;97.60
7998;DHT22;4044;49.814;7.828;2024-01-30T02:59:51;0.70;97.50
7998;DHT22;4044;49.814;7.828;2024-01-30T03:02:16;0.70;97.80
7998;DHT22;4044;49.814;7.828;2024-01-30T03:04:42;0.70;97.70
7998;DHT22;4044;49.814;7.828;2024-01-30T03:07:08;0.50;98.40
7998;DHT22;4044;49.814;7.828;2024-01-30T03:09:34;0.40;98.70
7998;DHT22;4044;49.814;7.828;2024-01-30T03:11:59;0.50;98.40
7998;DHT22;4044;49.814;7.828;2024-01-30T03:14:25;0.50;98.10
7998;DHT22;4044;49.814;7.828;2024-01-30T03:16:51;0.60;98.00
7998;DHT22;4044;49.814;7.828;2024-01-30T03:19:17;0.50;98.20
7998;DHT22;4044;49.814;7.828;2024-01-30T03:21:42;0.50;98.50
7998;DHT22;4044;49.814;7.828;2024-01-30T03:24:08;0.50;98.50
7998;DHT22;4044;49.814;7.828;2024-01-30T03:26:34;0.50;98.30
7998;DHT22;4044;49.814;7.828;2024-01-30T03:29:00;0.50;98.20
7998;DHT22;4044;49.814;7.828;2024-01-30T03:31:25;0.40;98.60
7998;DHT22;4044;49.814;7.828;2024-01-30T03:33:51;0.40;98.70
7998;DHT22;4044;49.814;7.828;2024-01-30T03:36:16;0.50;98.20
7998;DHT22;4044;49.814;7.828;2024-01-30T03:38:42;0.50;98.10
7998;DHT22;4044;49.814;7.828;2024-01-30T03:41:08;0.50;97.90
7998;DHT22;4044;49.814;7.828;2024-01-30T03:43:35;0.50;98.00
7998;DHT22;4044;49.814;7.828;2024-01-30T03:46:01;0.60;97.90
7998;DHT22;4044;49.814;7.828;2024-01-30T03:48:27;0.60;97.80
7998;DHT22;4044;49.814;7.828;2024-01-30T03:50:53;0.60;97.80
7998;DHT22;4044;49.814;7.828;2024-01-30T03:53:18;0.60;97.80
7998;DHT22;4044;49.814;7.828;2024-01-30T03:55:44;0.60;97.70
7998;DHT22;4044;49.814;7.828;2024-01-30T03:58:09;0.60;97.60
7998;DHT22;4044;49.814;7.828;2024-01-30T04:00:35;0.60;97.60
7998;DHT22;4044;49.814;7.828;2024-01-30T04:03:01;0.60;97.90
7998;DHT22;4044;49.814;7.828;2024-01-30T04:05:26;0.60;97.50
7998;DHT22;4044;49.814;7.828;2024-01-30T04:07:52;0.50;97.50
7998;DHT22;4044;49.814;7.828;2024-01-30T04:10:17;0.40;97.70
7998;DHT22;4044;49.814;7.828;2024-01-30T04:12:43;0.30;98.20
7998;DHT22;4044;49.814;7.828;2024-01-30T04:15:09;0.30;98.00
7998;DHT22;4044;49.814;7.828;2024-01-30T04:17:34;0.30;98.40
7998;DHT22;4044;49.814;7.828;2024-01-30T04:20:00;0.20;98.50
7998;DHT22;4044;49.814;7.828;2024-01-30T04:22:25;0.20;98.50
7998;DHT22;4044;49.814;7.828;2024-01-30T04:24:51;0.20;98.80
7998;DHT22;4044;49.814;7.828;2024-01-30T04:27:17;0.20;98.50
7998;DHT22;4044;49.814;7.828;2024-01-30T04:29:42;0.20;98.20
7998;DHT22;4044;49.814;7.828;2024-01-30T04:32:08;0.30;98.00
7998;DHT22;4044;49.814;7.828;2024-01-30T04:34:35;0.30;98.00
7998;DHT22;4044;49.814;7.828;2024-01-30T04:37:01;0.30;97.90
7998;DHT22;4044;49.814;7.828;2024-01-30T04:39:26;0.30;97.80
7998;DHT22;4044;49.814;7.828;2024-01-30T04:41:52;0.30;97.50
7998;DHT22;4044;49.814;7.828;2024-01-30T04:44:17;0.30;97.60
7998;DHT22;4044;49.814;7.828;2024-01-30T04:46:43;0.30;97.80
7998;DHT22;4044;49.814;7.828;2024-01-30T04:49:08;0.30;97.60
7998;DHT22;4044;49.814;7.828;2024-01-30T04:51:34;0.30;97.50
7998;DHT22;4044;49.814;7.828;2024-01-30T04:54:00;0.30;97.50
7998;DHT22;4044;49.814;7.828;2024-01-30T04:56:25;0.30;97.80
7998;DHT22;4044;49.814;7.828;2024-01-30T04:58:51;0.30;97.70
7998;DHT22;4044;49.814;7.828;2024-01-30T05:01:17;0.30;97.50
7998;DHT22;4044;49.814;7.828;2024-01-30T05:03:42;0.20;97.70
7998;DHT22;4044;49.814;7.828;2024-01-30T05:06:08;0.30;97.70
7998;DHT22;4044;49.814;7.828;2024-01-30T05:08:34;0.20;98.40
7998;DHT22;4044;49.814;7.828;2024-01-30T05:11:02;0.20;98.00
7998;DHT22;4044;49.814;7.828;2024-01-30T05:13:30;0.20;98.20
7998;DHT22;4044;49.814;7.828;2024-01-30T05:15:55;0.20;98.10
7998;DHT22;4044;49.814;7.828;2024-01-30T05:18:21;0.20;98.10
7998;DHT22;4044;49.814;7.828;2024-01-30T05:20:46;0.20;97.80
7998;DHT22;4044;49.814;7.828;2024-01-30T05:23:12;0.20;97.70
7998;DHT22;4044;49.814;7.828;2024-01-30T05:25:38;0.20;97.60
7998;DHT22;4044;49.814;7.828;2024-01-30T05:28:03;0.20;97.50
7998;DHT22;4044;49.814;7.828;2024-01-30T05:30:29;0.20;97.30
7998;DHT22;4044;49.814;7.828;2024-01-30T05:32:54;0.20;97.20
7998;DHT22;4044;49.814;7.828;2024-01-30T05:35:20;0.30;97.30
7998;DHT22;4044;49.814;7.828;2024-01-30T05:37:48;0.20;97.30
7998;DHT22;4044;49.814;7.828;2024-01-30T05:40:14;0.10;97.40
7998;DHT22;4044;49.814;7.828;2024-01-30T05:42:39;0.10;97.70
7998;DHT22;4044;49.814;7.828;2024-01-30T05:45:05;0.00;97.70
7998;DHT22;4044;49.814;7.828;2024-01-30T05:47:31;-0.10;98.10
7998;DHT22;4044;49.814;7.828;2024-01-30T05:49:56;-0.10;98.20
7998;DHT22;4044;49.814;7.828;2024-01-30T05:52:22;0.00;98.00
7998;DHT22;4044;49.814;7.828;2024-01-30T05:54:48;0.00;97.70
7998;DHT22;4044;49.814;7.828;2024-01-30T05:57:13;0.00;97.80
7998;DHT22;4044;49.814;7.828;2024-01-30T05:59:39;0.00;98.20
7998;DHT22;4044;49.814;7.828;2024-01-30T06:02:04;-0.10;98.10
7998;DHT22;4044;49.814;7.828;2024-01-30T06:04:30;-0.10;98.30
7998;DHT22;4044;49.814;7.828;2024-01-30T06:06:55;-0.20;98.50
7998;DHT22;4044;49.814;7.828;2024-01-30T06:09:21;-0.10;98.50
7998;DHT22;4044;49.814;7.828;2024-01-30T06:11:46;-0.10;98.40
7998;DHT22;4044;49.814;7.828;2024-01-30T06:14:12;0.00;98.20
7998;DHT22;4044;49.814;7.828;2024-01-30T06:16:38;0.00;98.00
7998;DHT22;4044;49.814;7.828;2024-01-30T06:19:03;0.00;97.70
7998;DHT22;4044;49.814;7.828;2024-01-30T06:21:29;0.10;97.80
7998;DHT22;4044;49.814;7.828;2024-01-30T06:23:56;0.10;97.60
7998;DHT22;4044;49.814;7.828;2024-01-30T06:26:21;0.00;97.80
7998;DHT22;4044;49.814;7.828;2024-01-30T06:28:47;0.10;97.60
7998;DHT22;4044;49.814;7.828;2024-01-30T06:31:12;0.10;97.40
7998;DHT22;4044;49.814;7.828;2024-01-30T06:33:38;0.10;97.50
7998;DHT22;4044;49.814;7.828;2024-01-30T06:36:03;0.10;97.40
7998;DHT22;4044;49.814;7.828;2024-01-30T06:38:29;0.10;97.60
7998;DHT22;4044;49.814;7.828;2024-01-30T06:40:55;0.10;97.50
7998;DHT22;4044;49.814;7.828;2024-01-30T06:43:21;0.10;97.50
7998;DHT22;4044;49.814;7.828;2024-01-30T06:45:47;0.10;97.50
7998;DHT22;4044;49.814;7.828;2024-01-30T06:48:12;0.10;97.30
7998;DHT22;4044;49.814;7.828;2024-01-30T06:50:38;0.10;97.20
7998;DHT22;4044;49.814;7.828;2024-01-30T06:53:03;0.00;97.50
7998;DHT22;4044;49.814;7.828;2024-01-30T06:55:29;0.00;97.80
7998;DHT22;4044;49.814;7.828;2024-01-30T06:57:55;-0.10;98.00
7998;DHT22;4044;49.814;7.828;2024-01-30T07:00:20;-0.10;97.60
7998;DHT22;4044;49.814;7.828;2024-01-30T07:02:46;0.00;97.60
7998;DHT22;4044;49.814;7.828;2024-01-30T07:05:12;0.00;97.70
7998;DHT22;4044;49.814;7.828;2024-01-30T07:07:38;0.00;97.80
7998;DHT22;4044;49.814;7.828;2024-01-30T07:10:04;-0.10;98.10
7998;DHT22;4044;49.814;7.828;2024-01-30T07:12:31;0.00;97.90
7998;DHT22;4044;49.814;7.828;2024-01-30T07:14:56;0.00;97.70
7998;DHT22;4044;49.814;7.828;2024-01-30T07:17:22;0.00;97.60
7998;DHT22;4044;49.814;7.828;2024-01-30T07:19:48;0.10;97.50
7998;DHT22;4044;49.814;7.828;2024-01-30T07:22:13;0.10;97.60
7998;DHT22;4044;49.814;7.828;2024-01-30T07:24:43;0.20;97.40
7998;DHT22;4044;49.814;7.828;2024-01-30T07:27:10;0.20;97.60
7998;DHT22;4044;49.814;7.828;2024-01-30T07:29:35;0.20;97.40
7998;DHT22;4044;49.814;7.828;2024-01-30T07:32:01;0.20;97.50
7998;DHT22;4044;49.814;7.828;2024-01-30T07:34:27;0.30;97.50
7998;DHT22;4044;49.814;7.828;2024-01-30T07:36:53;0.30;97.50
7998;DHT22;4044;49.814;7.828;2024-01-30T07:39:18;0.40;97.70
7998;DHT22;4044;49.814;7.828;2024-01-30T07:41:44;0.50;97.60
7998;DHT22;4044;49.814;7.828;2024-01-30T07:44:09;0.60;97.70
7998;DHT22;4044;49.814;7.828;2024-01-30T07:46:35;0.70;97.90
7998;DHT22;4044;49.814;7.828;2024-01-30T07:49:00;0.80;97.70
7998;DHT22;4044;49.814;7.828;2024-01-30T07:51:27;0.90;97.80
7998;DHT22;4044;49.814;7.828;2024-01-30T07:53:54;1.00;97.90
7998;DHT22;4044;49.814;7.828;2024-01-30T07:56:20;1.10;97.80
7998;DHT22;4044;49.814;7.828;2024-01-30T07:58:46;1.10;97.90
7998;DHT22;4044;49.814;7.828;2024-01-30T08:01:11;1.10;98.00
7998;DHT22;4044;49.814;7.828;2024-01-30T08:03:37;1.20;98.00
7998;DHT22;4044;49.814;7.828;2024-01-30T08:06:05;1.30;98.00
7998;DHT22;4044;49.814;7.828;2024-01-30T08:08:32;1.50;97.80
7998;DHT22;4044;49.814;7.828;2024-01-30T08:10:57;1.50;97.80
7998;DHT22;4044;49.814;7.828;2024-01-30T08:13:23;1.50;98.10
7998;DHT22;4044;49.814;7.828;2024-01-30T08:15:48;1.40;98.20
7998;DHT22;4044;49.814;7.828;2024-01-30T08:18:14;1.50;98.20
7998;DHT22;4044;49.814;7.828;2024-01-30T08:20:39;1.50;98.30
7998;DHT22;4044;49.814;7.828;2024-01-30T08:23:05;1.70;98.30
7998;DHT22;4044;49.814;7.828;2024-01-30T08:25:31;1.80;98.10
7998;DHT22;4044;49.814;7.828;2024-01-30T08:27:56;1.90;98.00
7998;DHT22;4044;49.814;7.828;2024-01-30T08:30:22;1.90;97.80
7998;DHT22;4044;49.814;7.828;2024-01-30T08:32:48;1.90;97.70
7998;DHT22;4044;49.814;7.828;2024-01-30T08:35:13;2.10;97.80
7998;DHT22;4044;49.814;7.828;2024-01-30T08:37:41;2.10;98.00
7998;DHT22;4044;49.814;7.828;2024-01-30T08:40:07;2.20;97.80
7998;DHT22;4044;49.814;7.828;2024-01-30T08:42:34;2.40;97.80
7998;DHT22;4044;49.814;7.828;2024-01-30T08:44:59;2.50;97.50
7998;DHT22;4044;49.814;7.828;2024-01-30T08:47:25;2.70;97.40
7998;DHT22;4044;49.814;7.828;2024-01-30T08:49:51;2.70;97.30
7998;DHT22;4044;49.814;7.828;2024-01-30T08:52:17;2.60;97.30
7998;DHT22;4044;49.814;7.828;2024-01-30T08:54:43;2.80;97.20
7998;DHT22;4044;49.814;7.828;2024-01-30T08:57:08;2.50;97.40
7998;DHT22;4044;49.814;7.828;2024-01-30T08:59:34;2.50;97.60
7998;DHT22;4044;49.814;7.828;2024-01-30T09:01:59;2.60;97.80
7998;DHT22;4044;49.814;7.828;2024-01-30T09:04:25;2.70;97.50
7998;DHT22;4044;49.814;7.828;2024-01-30T09:06:51;2.70;97.80
7998;DHT22;4044;49.814;7.828;2024-01-30T09:09:16;2.70;97.80
7998;DHT22;4044;49.814;7.828;2024-01-30T09:11:44;2.90;97.60
7998;DHT22;4044;49.814;7.828;2024-01-30T09:14:09;2.80;97.50
7998;DHT22;4044;49.814;7.828;2024-01-30T09:16:35;3.00;97.60
7998;DHT22;4044;49.814;7.828;2024-01-30T09:19:01;2.90;97.60
7998;DHT22;4044;49.814;7.828;2024-01-30T09:21:26;2.90;98.10
7998;DHT22;4044;49.814;7.828;2024-01-30T09:23:54;3.10;97.90
7998;DHT22;4044;49.814;7.828;2024-01-30T09:26:19;3.00;97.40
7998;DHT22;4044;49.814;7.828;2024-01-30T09:28:45;3.10;98.00
7998;DHT22;4044;49.814;7.828;2024-01-30T09:31:11;3.20;97.70
7998;DHT22;4044;49.814;7.828;2024-01-30T09:33:38;3.30;97.70
7998;DHT22;4044;49.814;7.828;2024-01-30T09:36:04;3.50;97.70
7998;DHT22;4044;49.814;7.828;2024-01-30T09:38:30;3.50;97.20
7998;DHT22;4044;49.814;7.828;2024-01-30T09:40:56;3.60;97.70
7998;DHT22;4044;49.814;7.828;2024-01-30T09:43:23;3.80;97.60
7998;DHT22;4044;49.814;7.828;2024-01-30T09:45:50;3.80;96.90
7998;DHT22;4044;49.814;7.828;2024-01-30T09:48:16;3.90;97.20
7998;DHT22;4044;49.814;7.828;2024-01-30T09:50:41;4.00;97.20
7998;DHT22;4044;49.814;7.828;2024-01-30T09:53:11;4.10;97.20
7998;DHT22;4044;49.814;7.828;2024-01-30T09:55:38;4.30;97.20
7998;DHT22;4044;49.814;7.828;2024-01-30T09:58:08;4.40;97.10
7998;DHT22;4044;49.814;7.828;2024-01-30T10:00:33;4.40;97.00
7998;DHT22;4044;49.814;7.828;2024-01-30T10:02:59;4.50;96.90
7998;DHT22;4044;49.814;7.828;2024-01-30T10:05:27;4.60;97.00
7998;DHT22;4044;49.814;7.828;2024-01-30T10:07:54;4.60;96.90
7998;DHT22;4044;49.814;7.828;2024-01-30T10:10:24;4.70;96.70
7998;DHT22;4044;49.814;7.828;2024-01-30T10:12:50;4.60;96.80
7998;DHT22;4044;49.814;7.828;2024-01-30T10:15:17;4.50;97.20
7998;DHT22;4044;49.814;7.828;2024-01-30T10:17:44;4.50;97.20
7998;DHT22;4044;49.814;7.828;2024-01-30T10:20:10;4.50;97.40
7998;DHT22;4044;49.814;7.828;2024-01-30T10:22:36;4.60;97.60
7998;DHT22;4044;49.814;7.828;2024-01-30T10:25:02;4.40;97.20
7998;DHT22;4044;49.814;7.828;2024-01-30T10:27:28;4.30;97.70
7998;DHT22;4044;49.814;7.828;2024-01-30T10:29:55;4.40;97.70
7998;DHT22;4044;49.814;7.828;2024-01-30T10:32:20;4.60;97.80
7998;DHT22;4044;49.814;7.828;2024-01-30T10:34:46;4.60;97.40
7998;DHT22;4044;49.814;7.828;2024-01-30T10:37:12;4.50;98.00
7998;DHT22;4044;49.814;7.828;2024-01-30T10:39:41;4.70;97.70
7998;DHT22;4044;49.814;7.828;2024-01-30T10:42:12;4.70;97.60
7998;DHT22;4044;49.814;7.828;2024-01-30T10:45:02;5.00;97.70
7998;DHT22;4044;49.814;7.828;2024-01-30T10:47:30;5.20;97.60
7998;DHT22;4044;49.814;7.828;2024-01-30T10:49:56;5.30;97.20
7998;DHT22;4044;49.814;7.828;2024-01-30T10:52:23;5.40;97.30
7998;DHT22;4044;49.814;7.828;2024-01-30T10:54:51;5.60;97.40
7998;DHT22;4044;49.814;7.828;2024-01-30T10:57:17;5.40;97.20
7998;DHT22;4044;49.814;7.828;2024-01-30T10:59:43;5.50;97.40
7998;DHT22;4044;49.814;7.828;2024-01-30T11:02:10;5.50;97.10
7998;DHT22;4044;49.814;7.828;2024-01-30T11:04:41;5.60;97.30
7998;DHT22;4044;49.814;7.828;2024-01-30T11:07:23;5.70;97.30
7998;DHT22;4044;49.814;7.828;2024-01-30T11:09:50;5.70;97.30
7998;DHT22;4044;49.814;7.828;2024-01-30T11:12:16;5.80;97.50
7998;DHT22;4044;49.814;7.828;2024-01-30T11:14:42;5.70;97.50
7998;DHT22;4044;49.814;7.828;2024-01-30T11:17:10;5.70;97.60
7998;DHT22;4044;49.814;7.828;2024-01-30T11:19:37;6.00;97.70
7998;DHT22;4044;49.814;7.828;2024-01-30T11:22:03;6.00;97.10
7998;DHT22;4044;49.814;7.828;2024-01-30T11:24:30;6.20;97.40
7998;DHT22;4044;49.814;7.828;2024-01-30T11:26:56;6.40;97.10
7998;DHT22;4044;49.814;7.828;2024-01-30T11:29:29;6.40;96.80
7998;DHT22;4044;49.814;7.828;2024-01-30T11:31:56;6.50;97.30
7998;DHT22;4044;49.814;7.828;2024-01-30T11:34:22;6.70;97.10
7998;DHT22;4044;49.814;7.828;2024-01-30T11:36:52;6.70;97.30
7998;DHT22;4044;49.814;7.828;2024-01-30T11:39:20;6.70;97.00
7998;DHT22;4044;49.814;7.828;2024-01-30T11:41:49;6.80;96.90
7998;DHT22;4044;49.814;7.828;2024-01-30T11:44:16;7.00;97.30
7998;DHT22;4044;49.814;7.828;2024-01-30T11:46:41;7.40;97.40
7998;DHT22;4044;49.814;7.828;2024-01-30T11:49:07;7.60;97.30
7998;DHT22;4044;49.814;7.828;2024-01-30T11:51:33;7.80;97.10
7998;DHT22;4044;49.814;7.828;2024-01-30T11:53:58;8.00;96.70
7998;DHT22;4044;49.814;7.828;2024-01-30T11:56:24;8.30;96.60
7998;DHT22;4044;49.814;7.828;2024-01-30T11:58:50;8.40;96.10
7998;DHT22;4044;49.814;7.828;2024-01-30T12:01:17;8.40;96.30
7998;DHT22;4044;49.814;7.828;2024-01-30T12:03:49;8.50;96.10
7998;DHT22;4044;49.814;7.828;2024-01-30T12:06:15;8.60;96.60
7998;DHT22;4044;49.814;7.828;2024-01-30T12:08:41;8.80;96.70
7998;DHT22;4044;49.814;7.828;2024-01-30T12:11:07;8.90;96.50
7998;DHT22;4044;49.814;7.828;2024-01-30T12:13:32;9.10;96.70
7998;DHT22;4044;49.814;7.828;2024-01-30T12:15:59;9.30;96.70
7998;DHT22;4044;49.814;7.828;2024-01-30T12:18:24;9.50;96.60
7998;DHT22;4044;49.814;7.828;2024-01-30T12:20:59;9.80;96.60
7998;DHT22;4044;49.814;7.828;2024-01-30T12:23:27;9.70;96.00
7998;DHT22;4044;49.814;7.828;2024-01-30T12:25:53;9.80;95.70
7998;DHT22;4044;49.814;7.828;2024-01-30T12:28:20;9.80;95.70
7998;DHT22;4044;49.814;7.828;2024-01-30T12:30:45;9.90;96.10
7998;DHT22;4044;49.814;7.828;2024-01-30T12:33:16;10.00;95.40
7998;DHT22;4044;49.814;7.828;2024-01-30T12:35:46;9.90;96.00
7998;DHT22;4044;49.814;7.828;2024-01-30T12:38:12;10.00;95.20
7998;DHT22;4044;49.814;7.828;2024-01-30T12:40:38;10.00;95.20
7998;DHT22;4044;49.814;7.828;2024-01-30T12:43:04;10.00;95.30
7998;DHT22;4044;49.814;7.828;2024-01-30T12:45:30;10.10;95.30
7998;DHT22;4044;49.814;7.828;2024-01-30T12:47:55;10.10;95.70
7998;DHT22;4044;49.814;7.828;2024-01-30T12:50:21;10.30;95.50
7998;DHT22;4044;49.814;7.828;2024-01-30T12:52:47;10.30;95.70
7998;DHT22;4044;49.814;7.828;2024-01-30T12:55:13;10.60;95.60
7998;DHT22;4044;49.814;7.828;2024-01-30T12:57:39;10.70;95.40
7998;DHT22;4044;49.814;7.828;2024-01-30T13:00:05;10.90;95.20
7998;DHT22;4044;49.814;7.828;2024-01-30T13:02:33;11.10;95.30
7998;DHT22;4044;49.814;7.828;2024-01-30T13:05:03;11.40;95.10
7998;DHT22;4044;49.814;7.828;2024-01-30T13:07:28;11.50;94.70
7998;DHT22;4044;49.814;7.828;2024-01-30T13:09:54;11.40;94.50
7998;DHT22;4044;49.814;7.828;2024-01-30T13:12:20;11.60;94.60
7998;DHT22;4044;49.814;7.828;2024-01-30T13:14:45;11.80;94.40
7998;DHT22;4044;49.814;7.828;2024-01-30T13:17:11;11.80;94.00
7998;DHT22;4044;49.814;7.828;2024-01-30T13:19:36;11.50;94.30
7998;DHT22;4044;49.814;7.828;2024-01-30T13:22:02;11.40;94.50
7998;DHT22;4044;49.814;7.828;2024-01-30T13:24:27;11.00;93.70
7998;DHT22;4044;49.814;7.828;2024-01-30T13:26:53;10.90;94.20
7998;DHT22;4044;49.814;7.828;2024-01-30T13:29:19;10.90;95.40
7998;DHT22;4044;49.814;7.828;2024-01-30T13:31:44;11.00;95.80
7998;DHT22;4044;49.814;7.828;2024-01-30T13:34:11;11.00;95.70
7998;DHT22;4044;49.814;7.828;2024-01-30T13:36:38;11.20;96.00
7998;DHT22;4044;49.814;7.828;2024-01-30T13:39:04;11.20;95.70
7998;DHT22;4044;49.814;7.828;2024-01-30T13:41:33;11.30;95.60
7998;DHT22;4044;49.814;7.828;2024-01-30T13:43:58;11.40;95.70
7998;DHT22;4044;49.814;7.828;2024-01-30T13:46:24;11.50;95.30
7998;DHT22;4044;49.814;7.828;2024-01-30T13:48:50;11.50;95.50
7998;DHT22;4044;49.814;7.828;2024-01-30T13:51:16;11.60;95.40
7998;DHT22;4044;49.814;7.828;2024-01-30T13:53:42;11.60;95.30
7998;DHT22;4044;49.814;7.828;2024-01-30T13:56:08;11.70;95.60
7998;DHT22;4044;49.814;7.828;2024-01-30T13:58:33;11.80;95.20
7998;DHT22;4044;49.814;7.828;2024-01-30T14:01:01;11.80;95.30
7998;DHT22;4044;49.814;7.828;2024-01-30T14:03:27;11.80;95.00
7998;DHT22;4044;49.814;7.828;2024-01-30T14:05:53;11.80;94.70
7998;DHT22;4044;49.814;7.828;2024-01-30T14:08:18;11.70;94.00
7998;DHT22;4044;49.814;7.828;2024-01-30T14:10:47;11.60;94.80
7998;DHT22;4044;49.814;7.828;2024-01-30T14:13:12;11.50;94.80
7998;DHT22;4044;49.814;7.828;2024-01-30T14:15:38;11.40;94.80
7998;DHT22;4044;49.814;7.828;2024-01-30T14:18:04;11.40;94.50
7998;DHT22;4044;49.814;7.828;2024-01-30T14:20:30;11.20;94.50
7998;DHT22;4044;49.814;7.828;2024-01-30T14:22:56;11.20;94.70
7998;DHT22;4044;49.814;7.828;2024-01-30T14:25:22;11.10;95.00
7998;DHT22;4044;49.814;7.828;2024-01-30T14:27:48;11.00;94.90
7998;DHT22;4044;49.814;7.828;2024-01-30T14:30:13;11.00;95.00
7998;DHT22;4044;49.814;7.828;2024-01-30T14:32:39;11.00;95.10
7998;DHT22;4044;49.814;7.828;2024-01-30T14:35:05;11.00;95.10
7998;DHT22;4044;49.814;7.828;2024-01-30T14:37:31;10.90;94.90
7998;DHT22;4044;49.814;7.828;2024-01-30T14:39:57;10.80;95.10
7998;DHT22;4044;49.814;7.828;2024-01-30T14:42:22;10.70;95.10
7998;DHT22;4044;49.814;7.828;2024-01-30T14:44:48;10.60;95.30
7998;DHT22;4044;49.814;7.828;2024-01-30T14:47:14;10.60;95.50
7998;DHT22;4044;49.814;7.828;2024-01-30T14:49:40;10.50;95.40
7998;DHT22;4044;49.814;7.828;2024-01-30T14:52:05;10.40;95.30
7998;DHT22;4044;49.814;7.828;2024-01-30T14:54:31;10.40;95.50
7998;DHT22;4044;49.814;7.828;2024-01-30T14:56:57;10.40;95.40
7998;DHT22;4044;49.814;7.828;2024-01-30T14:59:23;10.40;95.50
7998;DHT22;4044;49.814;7.828;2024-01-30T15:01:48;10.30;95.60
7998;DHT22;4044;49.814;7.828;2024-01-30T15:04:14;10.20;95.80
7998;DHT22;4044;49.814;7.828;2024-01-30T15:06:40;10.10;95.80
7998;DHT22;4044;49.814;7.828;2024-01-30T15:09:13;10.10;95.60
7998;DHT22;4044;49.814;7.828;2024-01-30T15:11:43;10.10;95.80
7998;DHT22;4044;49.814;7.828;2024-01-30T15:14:09;10.00;95.70
7998;DHT22;4044;49.814;7.828;2024-01-30T15:16:35;9.90;96.30
7998;DHT22;4044;49.814;7.828;2024-01-30T15:19:01;9.90;96.70
7998;DHT22;4044;49.814;7.828;2024-01-30T15:21:28;9.80;96.60
7998;DHT22;4044;49.814;7.828;2024-01-30T15:23:54;9.80;96.70
7998;DHT22;4044;49.814;7.828;2024-01-30T15:26:20;9.80;96.60
7998;DHT22;4044;49.814;7.828;2024-01-30T15:28:46;9.80;96.60
7998;DHT22;4044;49.814;7.828;2024-01-30T15:31:11;9.70;96.60
7998;DHT22;4044;49.814;7.828;2024-01-30T15:33:37;9.60;96.80
7998;DHT22;4044;49.814;7.828;2024-01-30T15:36:03;9.60;97.00
7998;DHT22;4044;49.814;7.828;2024-01-30T15:38:29;9.60;96.90
7998;DHT22;4044;49.814;7.828;2024-01-30T15:40:55;9.60;96.80
7998;DHT22;4044;49.814;7.828;2024-01-30T15:43:21;9.60;96.70
7998;DHT22;4044;49.814;7.828;2024-01-30T15:45:48;9.60;96.90
7998;DHT22;4044;49.814;7.828;2024-01-30T15:48:13;9.60;96.80
7998;DHT22;4044;49.814;7.828;2024-01-30T15:50:39;9.60;96.80
7998;DHT22;4044;49.814;7.828;2024-01-30T15:53:05;9.50;96.80
7998;DHT22;4044;49.814;7.828;2024-01-30T15:55:30;9.60;96.90
7998;DHT22;4044;49.814;7.828;2024-01-30T15:57:56;9.40;97.00
7998;DHT22;4044;49.814;7.828;2024-01-30T16:00:22;9.40;96.90
7998;DHT22;4044;49.814;7.828;2024-01-30T16:02:47;9.40;97.00
7998;DHT22;4044;49.814;7.828;2024-01-30T16:05:13;9.30;96.90
7998;DHT22;4044;49.814;7.828;2024-01-30T16:07:38;9.30;96.90